sensor_id;sensor_type;location;lat;lon;timestamp;temperature;humidity
66594;DHT22;53450;42.584;23.366;2023-08-17T00:02:14;20.38;57.63
66594;DHT22;53450;42.584;23.366;2023-08-17T00:04:40;20.29;56.71
66594;DHT22;53450;42.584;23.366;2023-08-17T00:07:06;20.24;58.07
66594;DHT22;53450;42.584;23.366;2023-08-17T00:09:32;20.15;58.43
66594;DHT22;53450;42.584;23.366;2023-08-17T00:11:58;20.07;58.36
66594;DHT22;53450;42.584;23.366;2023-08-17T00:14:25;19.95;58.31
66594;DHT22;53450;42.584;23.366;2023-08-17T00:16:54;19.90;59.33
66594;DHT22;53450;42.584;23.366;2023-08-17T00:19:26;19.63;60.32
66594;DHT22;53450;42.584;23.366;2023-08-17T00:21:59;19.53;60.89
66594;DHT22;53450;42.584;23.366;2023-08-17T00:24:27;19.59;61.38
66594;DHT22;53450;42.584;23.366;2023-08-17T00:26:53;19.11;63.10
66594;DHT22;53450;42.584;23.366;2023-08-17T00:29:37;19.14;62.98
66594;DHT22;53450;42.584;23.366;2023-08-17T00:32:03;19.15;62.97
66594;DHT22;53450;42.584;23.366;2023-08-17T00:34:32;19.25;62.81
66594;DHT22;53450;42.584;23.366;2023-08-17T00:37:22;19.23;63.55
66594;DHT22;53450;42.584;23.366;2023-08-17T00:40:13;19.14;63.36
66594;DHT22;53450;42.584;23.366;2023-08-17T00:42:44;19.19;62.79
66594;DHT22;53450;42.584;23.366;2023-08-17T00:45:09;19.16;63.53
66594;DHT22;53450;42.584;23.366;2023-08-17T00:47:35;19.08;63.49
66594;DHT22;53450;42.584;23.366;2023-08-17T00:50:02;19.08;63.44
66594;DHT22;53450;42.584;23.366;2023-08-17T00:52:28;18.78;64.01
66594;DHT22;53450;42.584;23.366;2023-08-17T00:54:55;18.47;64.95
66594;DHT22;53450;42.584;23.366;2023-08-17T00:57:20;18.51;65.49
66594;DHT22;53450;42.584;23.366;2023-08-17T00:59:46;18.61;65.33
66594;DHT22;53450;42.584;23.366;2023-08-17T01:02:12;18.60;64.98
66594;DHT22;53450;42.584;23.366;2023-08-17T01:04:38;18.64;64.71
66594;DHT22;53450;42.584;23.366;2023-08-17T01:07:03;18.68;64.88
66594;DHT22;53450;42.584;23.366;2023-08-17T01:09:29;18.63;63.92
66594;DHT22;53450;42.584;23.366;2023-08-17T01:12:15;18.51;64.19
66594;DHT22;53450;42.584;23.366;2023-08-17T01:15:05;18.29;65.41
66594;DHT22;53450;42.584;23.366;2023-08-17T01:20:00;18.29;65.57
66594;DHT22;53450;42.584;23.366;2023-08-17T01:22:55;18.30;65.96
66594;DHT22;53450;42.584;23.366;2023-08-17T01:25:54;18.40;65.53
66594;DHT22;53450;42.584;23.366;2023-08-17T01:28:20;18.43;65.14
66594;DHT22;53450;42.584;23.366;2023-08-17T01:30:51;18.47;65.08
66594;DHT22;53450;42.584;23.366;2023-08-17T01:33:36;18.58;64.84
66594;DHT22;53450;42.584;23.366;2023-08-17T01:36:32;18.56;65.09
66594;DHT22;53450;42.584;23.366;2023-08-17T01:38:59;18.50;64.87
66594;DHT22;53450;42.584;23.366;2023-08-17T01:41:27;18.57;64.91
66594;DHT22;53450;42.584;23.366;2023-08-17T01:43:54;18.60;64.13
66594;DHT22;53450;42.584;23.366;2023-08-17T01:46:21;18.51;62.61
66594;DHT22;53450;42.584;23.366;2023-08-17T01:48:47;18.64;63.10
66594;DHT22;53450;42.584;23.366;2023-08-17T01:51:18;18.63;63.10
66594;DHT22;53450;42.584;23.366;2023-08-17T01:53:46;18.63;62.43
66594;DHT22;53450;42.584;23.366;2023-08-17T01:56:12;18.60;62.51
66594;DHT22;53450;42.584;23.366;2023-08-17T01:58:38;18.57;62.31
66594;DHT22;53450;42.584;23.366;2023-08-17T02:01:04;18.49;61.03
66594;DHT22;53450;42.584;23.366;2023-08-17T02:03:30;18.46;61.41
66594;DHT22;53450;42.584;23.366;2023-08-17T02:05:56;18.54;61.53
66594;DHT22;53450;42.584;23.366;2023-08-17T02:08:27;18.53;60.73
66594;DHT22;53450;42.584;23.366;2023-08-17T02:10:55;18.60;61.17
66594;DHT22;53450;42.584;23.366;2023-08-17T02:13:24;18.54;60.71
66594;DHT22;53450;42.584;23.366;2023-08-17T02:16:22;18.58;60.61
66594;DHT22;53450;42.584;23.366;2023-08-17T02:18:49;18.51;58.74
66594;DHT22;53450;42.584;23.366;2023-08-17T02:21:16;18.65;58.35
66594;DHT22;53450;42.584;23.366;2023-08-17T02:23:42;18.74;58.78
66594;DHT22;53450;42.584;23.366;2023-08-17T02:26:07;18.72;57.70
66594;DHT22;53450;42.584;23.366;2023-08-17T02:28:33;18.79;57.37
66594;DHT22;53450;42.584;23.366;2023-08-17T02:30:59;18.84;58.00
66594;DHT22;53450;42.584;23.366;2023-08-17T02:33:27;18.67;57.88
66594;DHT22;53450;42.584;23.366;2023-08-17T02:35:52;18.68;57.96
66594;DHT22;53450;42.584;23.366;2023-08-17T02:38:18;18.72;57.82
66594;DHT22;53450;42.584;23.366;2023-08-17T02:40:48;18.58;57.68
66594;DHT22;53450;42.584;23.366;2023-08-17T02:43:14;18.56;58.32
66594;DHT22;53450;42.584;23.366;2023-08-17T02:45:47;18.63;60.08
66594;DHT22;53450;42.584;23.366;2023-08-17T02:48:13;18.51;59.36
66594;DHT22;53450;42.584;23.366;2023-08-17T02:50:40;18.46;58.01
66594;DHT22;53450;42.584;23.366;2023-08-17T02:53:05;18.36;59.24
66594;DHT22;53450;42.584;23.366;2023-08-17T02:55:31;18.23;58.89
66594;DHT22;53450;42.584;23.366;2023-08-17T02:57:57;18.14;58.88
66594;DHT22;53450;42.584;23.366;2023-08-17T03:00:22;18.17;58.87
66594;DHT22;53450;42.584;23.366;2023-08-17T03:02:48;17.96;60.09
66594;DHT22;53450;42.584;23.366;2023-08-17T03:05:14;18.02;60.48
66594;DHT22;53450;42.584;23.366;2023-08-17T03:08:05;17.98;60.68
66594;DHT22;53450;42.584;23.366;2023-08-17T03:10:37;17.93;60.07
66594;DHT22;53450;42.584;23.366;2023-08-17T03:13:03;17.89;60.76
66594;DHT22;53450;42.584;23.366;2023-08-17T03:15:29;17.92;60.67
66594;DHT22;53450;42.584;23.366;2023-08-17T03:17:55;17.95;61.47
66594;DHT22;53450;42.584;23.366;2023-08-17T03:20:21;17.91;61.09
66594;DHT22;53450;42.584;23.366;2023-08-17T03:22:49;17.85;61.56
66594;DHT22;53450;42.584;23.366;2023-08-17T03:25:17;17.75;63.18
66594;DHT22;53450;42.584;23.366;2023-08-17T03:27:44;17.74;63.33
66594;DHT22;53450;42.584;23.366;2023-08-17T03:30:10;17.65;62.66
66594;DHT22;53450;42.584;23.366;2023-08-17T03:32:36;17.31;64.27
66594;DHT22;53450;42.584;23.366;2023-08-17T03:35:02;17.28;64.45
66594;DHT22;53450;42.584;23.366;2023-08-17T03:37:30;17.42;64.61
66594;DHT22;53450;42.584;23.366;2023-08-17T03:39:59;17.41;65.14
66594;DHT22;53450;42.584;23.366;2023-08-17T03:42:26;17.35;65.28
66594;DHT22;53450;42.584;23.366;2023-08-17T03:44:52;17.27;65.61
66594;DHT22;53450;42.584;23.366;2023-08-17T03:47:18;17.02;66.16
66594;DHT22;53450;42.584;23.366;2023-08-17T03:49:44;17.14;66.52
66594;DHT22;53450;42.584;23.366;2023-08-17T03:52:12;17.17;66.31
66594;DHT22;53450;42.584;23.366;2023-08-17T03:54:41;17.40;65.82
66594;DHT22;53450;42.584;23.366;2023-08-17T03:57:06;17.72;64.55
66594;DHT22;53450;42.584;23.366;2023-08-17T03:59:35;18.23;63.59
66594;DHT22;53450;42.584;23.366;2023-08-17T04:02:01;19.08;61.31
66594;DHT22;53450;42.584;23.366;2023-08-17T04:04:27;19.45;60.71
66594;DHT22;53450;42.584;23.366;2023-08-17T04:06:54;19.69;59.97
66594;DHT22;53450;42.584;23.366;2023-08-17T04:09:45;19.76;58.76
66594;DHT22;53450;42.584;23.366;2023-08-17T04:12:11;20.15;57.96
66594;DHT22;53450;42.584;23.366;2023-08-17T04:14:39;20.26;58.26
66594;DHT22;53450;42.584;23.366;2023-08-17T04:17:07;19.80;59.66
66594;DHT22;53450;42.584;23.366;2023-08-17T04:19:33;19.40;61.05
66594;DHT22;53450;42.584;23.366;2023-08-17T04:22:01;18.91;63.15
66594;DHT22;53450;42.584;23.366;2023-08-17T04:24:26;18.64;63.81
66594;DHT22;53450;42.584;23.366;2023-08-17T04:26:52;18.58;63.31
66594;DHT22;53450;42.584;23.366;2023-08-17T04:29:20;18.64;64.26
66594;DHT22;53450;42.584;23.366;2023-08-17T04:31:50;18.75;64.87
66594;DHT22;53450;42.584;23.366;2023-08-17T04:34:26;18.75;66.03
66594;DHT22;53450;42.584;23.366;2023-08-17T04:36:53;18.72;66.99
66594;DHT22;53450;42.584;23.366;2023-08-17T04:39:19;18.83;66.67
66594;DHT22;53450;42.584;23.366;2023-08-17T04:41:45;18.88;65.50
66594;DHT22;53450;42.584;23.366;2023-08-17T04:44:23;18.61;67.33
66594;DHT22;53450;42.584;23.366;2023-08-17T04:46:49;18.78;67.28
66594;DHT22;53450;42.584;23.366;2023-08-17T04:49:14;18.78;66.77
66594;DHT22;53450;42.584;23.366;2023-08-17T04:51:40;18.79;66.11
66594;DHT22;53450;42.584;23.366;2023-08-17T04:54:06;18.94;65.65
66594;DHT22;53450;42.584;23.366;2023-08-17T04:56:35;19.08;65.17
66594;DHT22;53450;42.584;23.366;2023-08-17T04:59:01;19.23;65.24
66594;DHT22;53450;42.584;23.366;2023-08-17T05:01:27;19.35;64.00
66594;DHT22;53450;42.584;23.366;2023-08-17T05:03:53;19.49;63.98
66594;DHT22;53450;42.584;23.366;2023-08-17T05:06:19;19.57;66.59
66594;DHT22;53450;42.584;23.366;2023-08-17T05:08:45;19.63;65.29
66594;DHT22;53450;42.584;23.366;2023-08-17T05:11:11;19.83;64.93
66594;DHT22;53450;42.584;23.366;2023-08-17T05:13:36;19.88;65.50
66594;DHT22;53450;42.584;23.366;2023-08-17T05:16:27;19.88;64.28
66594;DHT22;53450;42.584;23.366;2023-08-17T05:19:20;20.07;63.96
66594;DHT22;53450;42.584;23.366;2023-08-17T05:21:48;20.25;63.72
66594;DHT22;53450;42.584;23.366;2023-08-17T05:24:16;20.46;63.21
66594;DHT22;53450;42.584;23.366;2023-08-17T05:26:43;20.56;63.35
66594;DHT22;53450;42.584;23.366;2023-08-17T05:29:09;20.65;63.25
66594;DHT22;53450;42.584;23.366;2023-08-17T05:31:36;20.77;63.28
66594;DHT22;53450;42.584;23.366;2023-08-17T05:34:02;21.02;63.56
66594;DHT22;53450;42.584;23.366;2023-08-17T05:36:28;21.17;63.00
66594;DHT22;53450;42.584;23.366;2023-08-17T05:38:56;21.23;60.00
66594;DHT22;53450;42.584;23.366;2023-08-17T05:41:22;21.38;61.44
66594;DHT22;53450;42.584;23.366;2023-08-17T05:43:48;21.51;54.50
66594;DHT22;53450;42.584;23.366;2023-08-17T05:46:14;21.89;53.96
66594;DHT22;53450;42.584;23.366;2023-08-17T05:48:39;21.99;51.70
66594;DHT22;53450;42.584;23.366;2023-08-17T05:51:08;22.14;49.40
66594;DHT22;53450;42.584;23.366;2023-08-17T05:53:34;22.17;48.84
66594;DHT22;53450;42.584;23.366;2023-08-17T05:55:59;22.29;50.51
66594;DHT22;53450;42.584;23.366;2023-08-17T05:58:25;22.33;49.07
66594;DHT22;53450;42.584;23.366;2023-08-17T06:01:16;22.54;47.03
66594;DHT22;53450;42.584;23.366;2023-08-17T06:03:42;22.63;46.89
66594;DHT22;53450;42.584;23.366;2023-08-17T06:06:09;22.70;47.76
66594;DHT22;53450;42.584;23.366;2023-08-17T06:09:00;22.88;49.45
66594;DHT22;53450;42.584;23.366;2023-08-17T06:11:51;23.01;47.49
66594;DHT22;53450;42.584;23.366;2023-08-17T06:14:17;23.18;49.77
66594;DHT22;53450;42.584;23.366;2023-08-17T06:16:42;23.23;47.91
66594;DHT22;53450;42.584;23.366;2023-08-17T06:19:08;23.36;48.82
66594;DHT22;53450;42.584;23.366;2023-08-17T06:21:33;23.29;47.70
66594;DHT22;53450;42.584;23.366;2023-08-17T06:24:24;23.42;47.51
66594;DHT22;53450;42.584;23.366;2023-08-17T06:26:54;23.42;47.77
66594;DHT22;53450;42.584;23.366;2023-08-17T06:29:22;23.50;48.76
66594;DHT22;53450;42.584;23.366;2023-08-17T06:31:48;23.56;48.79
66594;DHT22;53450;42.584;23.366;2023-08-17T06:34:15;23.53;48.12
66594;DHT22;53450;42.584;23.366;2023-08-17T06:36:41;23.56;48.44
66594;DHT22;53450;42.584;23.366;2023-08-17T06:39:07;23.47;46.75
66594;DHT22;53450;42.584;23.366;2023-08-17T06:41:34;23.39;47.36
66594;DHT22;53450;42.584;23.366;2023-08-17T06:43:59;23.56;47.59
66594;DHT22;53450;42.584;23.366;2023-08-17T06:46:25;23.59;47.26
66594;DHT22;53450;42.584;23.366;2023-08-17T06:48:51;23.62;46.39
66594;DHT22;53450;42.584;23.366;2023-08-17T06:51:16;23.70;46.47
66594;DHT22;53450;42.584;23.366;2023-08-17T06:53:42;23.84;47.26
66594;DHT22;53450;42.584;23.366;2023-08-17T06:56:09;23.87;46.81
66594;DHT22;53450;42.584;23.366;2023-08-17T06:58:35;24.00;47.26
66594;DHT22;53450;42.584;23.366;2023-08-17T07:01:03;24.01;46.67
66594;DHT22;53450;42.584;23.366;2023-08-17T07:03:28;23.92;47.09
66594;DHT22;53450;42.584;23.366;2023-08-17T07:05:56;23.97;47.29
66594;DHT22;53450;42.584;23.366;2023-08-17T07:08:22;23.98;46.75
66594;DHT22;53450;42.584;23.366;2023-08-17T07:10:48;24.01;47.73
66594;DHT22;53450;42.584;23.366;2023-08-17T07:13:14;24.13;47.28
66594;DHT22;53450;42.584;23.366;2023-08-17T07:15:40;24.07;46.06
66594;DHT22;53450;42.584;23.366;2023-08-17T07:18:05;24.20;47.18
66594;DHT22;53450;42.584;23.366;2023-08-17T07:20:33;24.36;48.18
66594;DHT22;53450;42.584;23.366;2023-08-17T07:23:01;24.32;47.04
66594;DHT22;53450;42.584;23.366;2023-08-17T07:25:29;24.24;47.00
66594;DHT22;53450;42.584;23.366;2023-08-17T07:27:57;24.41;47.32
66594;DHT22;53450;42.584;23.366;2023-08-17T07:30:23;24.32;47.00
66594;DHT22;53450;42.584;23.366;2023-08-17T07:32:49;24.39;46.37
66594;DHT22;53450;42.584;23.366;2023-08-17T07:35:24;24.47;47.88
66594;DHT22;53450;42.584;23.366;2023-08-17T07:37:52;24.59;48.15
66594;DHT22;53450;42.584;23.366;2023-08-17T07:40:18;24.77;48.01
66594;DHT22;53450;42.584;23.366;2023-08-17T07:42:46;24.80;47.83
66594;DHT22;53450;42.584;23.366;2023-08-17T07:45:12;24.92;47.21
66594;DHT22;53450;42.584;23.366;2023-08-17T07:47:42;24.83;47.24
66594;DHT22;53450;42.584;23.366;2023-08-17T07:50:08;24.90;48.20
66594;DHT22;53450;42.584;23.366;2023-08-17T07:52:34;24.97;47.68
66594;DHT22;53450;42.584;23.366;2023-08-17T07:55:02;25.09;47.71
66594;DHT22;53450;42.584;23.366;2023-08-17T07:57:28;25.04;47.43
66594;DHT22;53450;42.584;23.366;2023-08-17T07:59:56;25.04;48.60
66594;DHT22;53450;42.584;23.366;2023-08-17T08:02:22;25.02;48.15
66594;DHT22;53450;42.584;23.366;2023-08-17T08:04:47;25.04;48.24
66594;DHT22;53450;42.584;23.366;2023-08-17T08:07:21;25.00;47.47
66594;DHT22;53450;42.584;23.366;2023-08-17T08:09:52;25.16;48.61
66594;DHT22;53450;42.584;23.366;2023-08-17T08:12:17;25.23;48.95
66594;DHT22;53450;42.584;23.366;2023-08-17T08:14:43;25.31;49.13
66594;DHT22;53450;42.584;23.366;2023-08-17T08:17:08;25.51;49.59
66594;DHT22;53450;42.584;23.366;2023-08-17T08:19:34;25.40;48.39
66594;DHT22;53450;42.584;23.366;2023-08-17T08:22:02;25.44;49.55
66594;DHT22;53450;42.584;23.366;2023-08-17T08:24:28;25.33;49.24
66594;DHT22;53450;42.584;23.366;2023-08-17T08:27:24;25.54;49.82
66594;DHT22;53450;42.584;23.366;2023-08-17T08:30:23;25.61;48.68
66594;DHT22;53450;42.584;23.366;2023-08-17T08:32:49;25.85;49.46
66594;DHT22;53450;42.584;23.366;2023-08-17T08:35:25;25.77;50.67
66594;DHT22;53450;42.584;23.366;2023-08-17T08:37:53;25.77;50.07
66594;DHT22;53450;42.584;23.366;2023-08-17T08:40:27;25.84;49.78
66594;DHT22;53450;42.584;23.366;2023-08-17T08:42:56;25.81;47.09
66594;DHT22;53450;42.584;23.366;2023-08-17T08:45:27;25.96;45.32
66594;DHT22;53450;42.584;23.366;2023-08-17T08:47:55;25.99;44.83
66594;DHT22;53450;42.584;23.366;2023-08-17T08:50:25;26.13;44.87
66594;DHT22;53450;42.584;23.366;2023-08-17T08:53:02;26.19;45.33
66594;DHT22;53450;42.584;23.366;2023-08-17T08:55:37;26.32;44.34
66594;DHT22;53450;42.584;23.366;2023-08-17T08:58:04;26.26;44.73
66594;DHT22;53450;42.584;23.366;2023-08-17T09:00:35;26.37;44.23
66594;DHT22;53450;42.584;23.366;2023-08-17T09:03:04;26.44;44.44
66594;DHT22;53450;42.584;23.366;2023-08-17T09:05:31;26.67;44.02
66594;DHT22;53450;42.584;23.366;2023-08-17T09:08:00;26.61;43.52
66594;DHT22;53450;42.584;23.366;2023-08-17T09:10:28;26.67;44.69
66594;DHT22;53450;42.584;23.366;2023-08-17T09:12:56;26.88;43.58
66594;DHT22;53450;42.584;23.366;2023-08-17T09:15:22;26.94;44.80
66594;DHT22;53450;42.584;23.366;2023-08-17T09:17:48;26.77;42.91
66594;DHT22;53450;42.584;23.366;2023-08-17T09:20:38;26.80;44.18
66594;DHT22;53450;42.584;23.366;2023-08-17T09:23:14;26.65;43.38
66594;DHT22;53450;42.584;23.366;2023-08-17T09:25:43;26.68;43.85
66594;DHT22;53450;42.584;23.366;2023-08-17T09:28:13;26.78;44.52
66594;DHT22;53450;42.584;23.366;2023-08-17T09:31:01;26.97;43.53
66594;DHT22;53450;42.584;23.366;2023-08-17T09:33:30;26.98;44.68
66594;DHT22;53450;42.584;23.366;2023-08-17T09:35:58;27.15;43.56
66594;DHT22;53450;42.584;23.366;2023-08-17T09:38:24;27.02;42.55
66594;DHT22;53450;42.584;23.366;2023-08-17T09:40:50;27.18;43.31
66594;DHT22;53450;42.584;23.366;2023-08-17T09:43:18;27.08;42.82
66594;DHT22;53450;42.584;23.366;2023-08-17T09:45:45;27.02;43.59
66594;DHT22;53450;42.584;23.366;2023-08-17T09:48:16;27.22;44.14
66594;DHT22;53450;42.584;23.366;2023-08-17T09:51:00;27.43;44.00
66594;DHT22;53450;42.584;23.366;2023-08-17T09:53:53;27.63;43.13
66594;DHT22;53450;42.584;23.366;2023-08-17T09:56:21;27.39;42.09
66594;DHT22;53450;42.584;23.366;2023-08-17T09:58:49;27.46;43.17
66594;DHT22;53450;42.584;23.366;2023-08-17T10:01:15;27.32;41.27
66594;DHT22;53450;42.584;23.366;2023-08-17T10:03:45;27.43;42.08
66594;DHT22;53450;42.584;23.366;2023-08-17T10:06:13;27.69;42.68
66594;DHT22;53450;42.584;23.366;2023-08-17T10:08:46;27.76;41.55
66594;DHT22;53450;42.584;23.366;2023-08-17T10:11:16;27.57;40.36
66594;DHT22;53450;42.584;23.366;2023-08-17T10:14:04;27.55;40.45
66594;DHT22;53450;42.584;23.366;2023-08-17T10:16:57;27.80;42.28
66594;DHT22;53450;42.584;23.366;2023-08-17T10:24:47;27.84;39.90
66594;DHT22;53450;42.584;23.366;2023-08-17T10:27:16;28.06;40.79
66594;DHT22;53450;42.584;23.366;2023-08-17T10:29:43;28.15;41.24
66594;DHT22;53450;42.584;23.366;2023-08-17T10:32:12;28.17;40.73
66594;DHT22;53450;42.584;23.366;2023-08-17T10:34:38;28.28;40.39
66594;DHT22;53450;42.584;23.366;2023-08-17T10:37:10;28.41;39.93
66594;DHT22;53450;42.584;23.366;2023-08-17T10:39:36;28.43;41.04
66594;DHT22;53450;42.584;23.366;2023-08-17T10:42:05;28.55;40.56
66594;DHT22;53450;42.584;23.366;2023-08-17T10:44:47;28.78;40.18
66594;DHT22;53450;42.584;23.366;2023-08-17T10:47:23;28.86;38.53
66594;DHT22;53450;42.584;23.366;2023-08-17T10:49:59;28.55;38.89
66594;DHT22;53450;42.584;23.366;2023-08-17T10:52:53;28.66;39.23
66594;DHT22;53450;42.584;23.366;2023-08-17T10:55:45;28.75;39.92
66594;DHT22;53450;42.584;23.366;2023-08-17T10:58:13;28.99;39.95
66594;DHT22;53450;42.584;23.366;2023-08-17T11:00:41;29.16;39.12
66594;DHT22;53450;42.584;23.366;2023-08-17T11:03:18;29.33;39.83
66594;DHT22;53450;42.584;23.366;2023-08-17T11:05:48;29.14;37.70
66594;DHT22;53450;42.584;23.366;2023-08-17T11:08:32;29.46;38.70
66594;DHT22;53450;42.584;23.366;2023-08-17T11:11:30;29.37;38.65
66594;DHT22;53450;42.584;23.366;2023-08-17T11:14:21;29.20;37.64
66594;DHT22;53450;42.584;23.366;2023-08-17T11:16:47;29.03;38.07
66594;DHT22;53450;42.584;23.366;2023-08-17T11:19:12;29.14;39.18
66594;DHT22;53450;42.584;23.366;2023-08-17T11:21:38;29.23;39.25
66594;DHT22;53450;42.584;23.366;2023-08-17T11:24:04;29.34;37.85
66594;DHT22;53450;42.584;23.366;2023-08-17T11:26:36;29.31;37.68
66594;DHT22;53450;42.584;23.366;2023-08-17T11:29:02;29.33;37.82
66594;DHT22;53450;42.584;23.366;2023-08-17T11:31:28;29.47;37.60
66594;DHT22;53450;42.584;23.366;2023-08-17T11:33:54;29.64;37.20
66594;DHT22;53450;42.584;23.366;2023-08-17T11:36:27;29.67;37.07
66594;DHT22;53450;42.584;23.366;2023-08-17T11:38:53;29.50;36.79
66594;DHT22;53450;42.584;23.366;2023-08-17T11:41:19;29.67;36.90
66594;DHT22;53450;42.584;23.366;2023-08-17T11:43:45;29.62;37.81
66594;DHT22;53450;42.584;23.366;2023-08-17T11:46:11;29.84;37.74
66594;DHT22;53450;42.584;23.366;2023-08-17T11:48:37;29.86;37.36
66594;DHT22;53450;42.584;23.366;2023-08-17T11:51:12;29.92;36.21
66594;DHT22;53450;42.584;23.366;2023-08-17T11:53:47;29.86;36.98
66594;DHT22;53450;42.584;23.366;2023-08-17T11:56:13;29.93;37.00
66594;DHT22;53450;42.584;23.366;2023-08-17T11:58:48;30.06;38.11
66594;DHT22;53450;42.584;23.366;2023-08-17T12:01:13;29.86;38.21
66594;DHT22;53450;42.584;23.366;2023-08-17T12:03:41;29.58;37.60
66594;DHT22;53450;42.584;23.366;2023-08-17T12:06:10;29.46;38.52
66594;DHT22;53450;42.584;23.366;2023-08-17T12:08:38;29.65;37.62
66594;DHT22;53450;42.584;23.366;2023-08-17T12:11:06;30.01;36.67
66594;DHT22;53450;42.584;23.366;2023-08-17T12:13:35;30.19;36.14
66594;DHT22;53450;42.584;23.366;2023-08-17T12:16:01;30.39;36.69
66594;DHT22;53450;42.584;23.366;2023-08-17T12:18:27;30.43;35.97
66594;DHT22;53450;42.584;23.366;2023-08-17T12:20:53;30.37;36.25
66594;DHT22;53450;42.584;23.366;2023-08-17T12:23:22;30.23;36.47
66594;DHT22;53450;42.584;23.366;2023-08-17T12:25:53;30.33;37.01
66594;DHT22;53450;42.584;23.366;2023-08-17T12:28:19;30.32;36.81
66594;DHT22;53450;42.584;23.366;2023-08-17T12:30:44;30.36;37.32
66594;DHT22;53450;42.584;23.366;2023-08-17T12:33:15;30.43;36.36
66594;DHT22;53450;42.584;23.366;2023-08-17T12:35:40;30.52;36.47
66594;DHT22;53450;42.584;23.366;2023-08-17T12:38:06;30.57;36.26
66594;DHT22;53450;42.584;23.366;2023-08-17T12:40:31;30.61;37.61
66594;DHT22;53450;42.584;23.366;2023-08-17T12:43:00;30.69;36.57
66594;DHT22;53450;42.584;23.366;2023-08-17T12:45:27;30.99;36.26
66594;DHT22;53450;42.584;23.366;2023-08-17T12:47:55;31.12;35.79
66594;DHT22;53450;42.584;23.366;2023-08-17T12:50:25;30.86;35.56
66594;DHT22;53450;42.584;23.366;2023-08-17T12:52:51;30.55;36.47
66594;DHT22;53450;42.584;23.366;2023-08-17T12:55:17;30.39;38.85
66594;DHT22;53450;42.584;23.366;2023-08-17T12:57:42;30.47;38.83
66594;DHT22;53450;42.584;23.366;2023-08-17T13:00:11;30.33;38.56
66594;DHT22;53450;42.584;23.366;2023-08-17T13:02:37;30.59;38.13
66594;DHT22;53450;42.584;23.366;2023-08-17T13:05:02;30.57;36.10
66594;DHT22;53450;42.584;23.366;2023-08-17T13:07:30;30.73;35.55
66594;DHT22;53450;42.584;23.366;2023-08-17T13:09:56;30.86;38.05
66594;DHT22;53450;42.584;23.366;2023-08-17T13:12:49;31.11;39.35
66594;DHT22;53450;42.584;23.366;2023-08-17T13:15:47;31.07;40.31
66594;DHT22;53450;42.584;23.366;2023-08-17T13:18:12;30.92;40.60
66594;DHT22;53450;42.584;23.366;2023-08-17T13:20:40;30.83;41.20
66594;DHT22;53450;42.584;23.366;2023-08-17T13:23:09;30.83;41.23
66594;DHT22;53450;42.584;23.366;2023-08-17T13:25:34;30.50;41.17
66594;DHT22;53450;42.584;23.366;2023-08-17T13:28:26;30.25;41.57
66594;DHT22;53450;42.584;23.366;2023-08-17T13:31:17;29.88;42.25
66594;DHT22;53450;42.584;23.366;2023-08-17T13:33:44;29.61;42.94
66594;DHT22;53450;42.584;23.366;2023-08-17T13:36:10;29.61;43.66
66594;DHT22;53450;42.584;23.366;2023-08-17T13:38:36;29.72;44.01
66594;DHT22;53450;42.584;23.366;2023-08-17T13:41:04;29.70;43.08
66594;DHT22;53450;42.584;23.366;2023-08-17T13:43:30;29.88;43.18
66594;DHT22;53450;42.584;23.366;2023-08-17T13:45:57;29.97;42.39
66594;DHT22;53450;42.584;23.366;2023-08-17T13:48:26;29.82;42.87
66594;DHT22;53450;42.584;23.366;2023-08-17T13:50:51;29.77;44.04
66594;DHT22;53450;42.584;23.366;2023-08-17T13:53:17;29.67;43.31
66594;DHT22;53450;42.584;23.366;2023-08-17T13:55:42;29.89;41.91
66594;DHT22;53450;42.584;23.366;2023-08-17T13:58:08;29.97;42.26
66594;DHT22;53450;42.584;23.366;2023-08-17T14:00:37;29.98;42.08
66594;DHT22;53450;42.584;23.366;2023-08-17T14:03:03;29.81;42.42
66594;DHT22;53450;42.584;23.366;2023-08-17T14:05:29;29.71;42.44
66594;DHT22;53450;42.584;23.366;2023-08-17T14:07:55;30.11;42.42
66594;DHT22;53450;42.584;23.366;2023-08-17T14:10:20;30.01;43.13
66594;DHT22;53450;42.584;23.366;2023-08-17T14:12:46;29.64;42.26
66594;DHT22;53450;42.584;23.366;2023-08-17T14:15:12;29.54;43.76
66594;DHT22;53450;42.584;23.366;2023-08-17T14:17:37;29.41;44.12
66594;DHT22;53450;42.584;23.366;2023-08-17T14:20:03;29.00;44.37
66594;DHT22;53450;42.584;23.366;2023-08-17T14:22:36;28.85;45.05
66594;DHT22;53450;42.584;23.366;2023-08-17T14:25:02;28.71;45.07
66594;DHT22;53450;42.584;23.366;2023-08-17T14:27:30;28.68;45.06
66594;DHT22;53450;42.584;23.366;2023-08-17T14:29:56;28.82;45.19
66594;DHT22;53450;42.584;23.366;2023-08-17T14:32:22;29.20;44.45
66594;DHT22;53450;42.584;23.366;2023-08-17T14:34:47;29.55;44.19
66594;DHT22;53450;42.584;23.366;2023-08-17T14:37:13;29.31;43.23
66594;DHT22;53450;42.584;23.366;2023-08-17T14:39:39;29.26;44.14
66594;DHT22;53450;42.584;23.366;2023-08-17T14:42:30;29.17;43.47
66594;DHT22;53450;42.584;23.366;2023-08-17T14:45:07;29.35;43.39
66594;DHT22;53450;42.584;23.366;2023-08-17T14:47:33;29.34;44.21
66594;DHT22;53450;42.584;23.366;2023-08-17T14:50:01;28.99;44.24
66594;DHT22;53450;42.584;23.366;2023-08-17T14:52:27;28.72;44.54
66594;DHT22;53450;42.584;23.366;2023-08-17T14:54:52;28.59;44.06
66594;DHT22;53450;42.584;23.366;2023-08-17T14:57:20;28.75;43.85
66594;DHT22;53450;42.584;23.366;2023-08-17T14:59:46;28.78;44.39
66594;DHT22;53450;42.584;23.366;2023-08-17T15:02:12;28.76;45.29
66594;DHT22;53450;42.584;23.366;2023-08-17T15:04:42;28.71;45.68
66594;DHT22;53450;42.584;23.366;2023-08-17T15:07:07;28.86;44.94
66594;DHT22;53450;42.584;23.366;2023-08-17T15:09:39;28.78;44.60
66594;DHT22;53450;42.584;23.366;2023-08-17T15:12:05;28.99;44.13
66594;DHT22;53450;42.584;23.366;2023-08-17T15:14:31;29.17;44.27
66594;DHT22;53450;42.584;23.366;2023-08-17T15:16:56;29.16;43.63
66594;DHT22;53450;42.584;23.366;2023-08-17T15:19:22;29.02;43.97
66594;DHT22;53450;42.584;23.366;2023-08-17T15:21:48;28.95;43.90
66594;DHT22;53450;42.584;23.366;2023-08-17T15:24:14;28.79;44.50
66594;DHT22;53450;42.584;23.366;2023-08-17T15:26:39;28.61;44.59
66594;DHT22;53450;42.584;23.366;2023-08-17T15:29:08;28.48;44.89
66594;DHT22;53450;42.584;23.366;2023-08-17T15:31:33;28.31;45.30
66594;DHT22;53450;42.584;23.366;2023-08-17T15:33:59;28.43;45.35
66594;DHT22;53450;42.584;23.366;2023-08-17T15:36:25;28.47;45.28
66594;DHT22;53450;42.584;23.366;2023-08-17T15:38:52;28.49;45.02